Time;durP1;ratioP1;P1;durP2;ratioP2;P2;SDS_P1;SDS_P2;PMS_P1;PMS_P2;Temp;Humidity;BMP_temperature;BMP_pressure;BME280_temperature;BME280_humidity;BME280_pressure;Samples;Min_cycle;Max_cycle;Signal;HPM_P1;HPM_P2
2022/02/12 00:00:06;;;;;;;16.17;5.97;;;9.00;93.90;;;;;;5073300;28;20503;-53
2022/02/12 00:02:32;;;;;;;8.13;3.13;;;9.00;93.90;;;;;;5069919;28;20035;-53
2022/02/12 00:04:58;;;;;;;5.47;2.78;;;9.00;93.90;;;;;;5067784;28;20025;-53
2022/02/12 00:07:24;;;;;;;7.85;2.67;;;9.00;93.90;;;;;;5068444;28;20036;-53
2022/02/12 00:09:49;;;;;;;9.40;3.90;;;9.00;93.90;;;;;;5066430;28;20125;-53
2022/02/12 00:12:15;;;;;;;13.60;6.53;;;9.00;93.90;;;;;;5072297;28;20553;-53
2022/02/12 00:14:42;;;;;;;16.52;6.03;;;9.00;93.90;;;;;;5073193;28;20013;-53
2022/02/12 00:17:08;;;;;;;12.80;5.53;;;9.00;93.90;;;;;;5076375;28;20397;-53
2022/02/12 00:19:34;;;;;;;9.98;3.95;;;9.00;93.80;;;;;;5073613;28;20024;-53
2022/02/12 00:22:00;;;;;;;9.88;3.50;;;9.00;93.80;;;;;;5072454;28;20093;-53
2022/02/12 00:24:25;;;;;;;6.82;3.45;;;9.00;93.90;;;;;;5073453;28;20021;-53
2022/02/12 00:26:51;;;;;;;8.35;3.13;;;9.00;93.80;;;;;;5073308;28;20426;-53
2022/02/12 00:29:17;;;;;;;10.35;3.75;;;9.00;93.80;;;;;;5074161;28;20048;-53
2022/02/12 00:31:42;;;;;;;8.57;3.38;;;9.00;93.90;;;;;;5072918;28;20422;-53
2022/02/12 00:34:08;;;;;;;8.60;3.00;;;8.90;93.80;;;;;;5073897;28;20104;-53
2022/02/12 00:36:34;;;;;;;7.60;3.05;;;9.00;93.90;;;;;;5072978;28;20028;-53
2022/02/12 00:38:59;;;;;;;6.47;3.30;;;8.90;93.80;;;;;;5069753;28;20052;-53
2022/02/12 00:41:25;;;;;;;14.85;4.18;;;8.90;93.80;;;;;;5072624;28;20573;-53
2022/02/12 00:43:50;;;;;;;8.90;3.67;;;8.90;93.80;;;;;;5076840;28;20078;-53
2022/02/12 00:46:16;;;;;;;11.77;3.90;;;8.90;93.80;;;;;;5074170;28;20117;-53
2022/02/12 00:48:41;;;;;;;7.15;3.45;;;8.90;93.70;;;;;;5070878;28;20021;-53
2022/02/12 00:51:07;;;;;;;8.55;3.35;;;8.90;93.70;;;;;;5070689;28;20450;-53
2022/02/12 00:53:33;;;;;;;4.57;2.40;;;8.90;93.70;;;;;;5075096;28;20032;-53
2022/02/12 00:55:58;;;;;;;8.45;2.83;;;8.90;93.80;;;;;;5071854;28;20454;-53
2022/02/12 00:58:24;;;;;;;8.68;2.72;;;8.90;93.80;;;;;;5077638;28;20016;-54
2022/02/12 01:00:49;;;;;;;7.32;3.10;;;8.90;93.80;;;;;;5073018;28;20083;-53
2022/02/12 01:03:15;;;;;;;7.38;3.13;;;8.90;93.70;;;;;;5073932;28;20413;-53
2022/02/12 01:05:41;;;;;;;4.47;3.13;;;8.90;93.70;;;;;;5077407;28;20029;-53
2022/02/12 01:08:08;;;;;;;5.82;3.17;;;8.90;93.70;;;;;;5076160;28;20366;-53
2022/02/12 01:10:34;;;;;;;12.18;3.15;;;8.90;93.70;;;;;;5071102;28;20089;-53
2022/02/12 01:13:01;;;;;;;10.45;3.05;;;8.90;93.70;;;;;;5070020;28;20066;-53
2022/02/12 01:15:26;;;;;;;10.02;3.20;;;8.90;93.70;;;;;;5074988;28;20043;-53
2022/02/12 01:17:52;;;;;;;6.82;3.10;;;8.90;93.70;;;;;;5072193;28;20024;-53
2022/02/12 01:20:18;;;;;;;9.07;3.63;;;8.90;93.70;;;;;;5072507;28;20093;-53
2022/02/12 01:22:46;;;;;;;8.80;3.15;;;8.90;93.70;;;;;;5070414;28;20029;-53
2022/02/12 01:25:11;;;;;;;4.85;2.53;;;8.90;93.70;;;;;;5061721;28;20032;-53
2022/02/12 01:27:37;;;;;;;4.50;2.80;;;8.90;93.70;;;;;;5056388;28;20366;-53
2022/02/12 01:30:07;;;;;;;6.15;2.97;;;8.80;93.60;;;;;;5060251;28;20445;-53
2022/02/12 01:32:33;;;;;;;7.18;2.92;;;8.90;93.70;;;;;;5058281;28;20037;-53
2022/02/12 01:34:58;;;;;;;16.02;4.72;;;8.80;93.60;;;;;;5060319;28;20393;-53
2022/02/12 01:37:24;;;;;;;12.88;5.05;;;8.80;93.60;;;;;;5061305;28;20090;-53
2022/02/12 01:39:50;;;;;;;9.85;3.58;;;8.80;93.60;;;;;;5061016;28;21363;-53
2022/02/12 01:42:17;;;;;;;23.95;6.57;;;8.80;93.60;;;;;;5060692;28;20037;-52
2022/02/12 01:44:43;;;;;;;26.42;7.30;;;8.80;93.50;;;;;;5057889;28;20094;-53
2022/02/12 01:47:11;;;;;;;21.48;5.78;;;8.80;93.60;;;;;;5060279;28;20442;-53
2022/02/12 01:49:38;;;;;;;14.13;3.90;;;8.80;93.50;;;;;;5061704;28;20029;-52
2022/02/12 01:52:09;;;;;;;8.88;4.05;;;8.80;93.60;;;;;;5063418;28;20039;-53
2022/02/12 01:54:35;;;;;;;9.38;3.85;;;8.80;93.60;;;;;;5059638;28;20443;-53
2022/02/12 01:57:03;;;;;;;12.90;4.05;;;8.80;93.50;;;;;;5060361;28;20120;-53
2022/02/12 01:59:28;;;;;;;16.58;5.30;;;8.80;93.50;;;;;;5063743;28;20052;-53
2022/02/12 02:01:54;;;;;;;15.82;4.45;;;8.80;93.60;;;;;;5061466;28;20053;-53
2022/02/12 02:04:20;;;;;;;11.95;4.32;;;8.80;93.60;;;;;;5061627;28;20032;-53
2022/02/12 02:06:50;;;;;;;11.23;4.18;;;8.80;93.50;;;;;;5062910;28;20111;-53
2022/02/12 02:09:17;;;;;;;7.13;3.15;;;8.80;93.50;;;;;;5056619;28;20020;-53
2022/02/12 02:11:43;;;;;;;13.52;3.80;;;8.80;93.50;;;;;;5055252;28;20041;-53
2022/02/12 02:14:10;;;;;;;10.35;3.92;;;8.80;93.50;;;;;;5062283;28;20025;-53
2022/02/12 02:16:37;;;;;;;5.00;2.78;;;8.80;93.50;;;;;;5060350;28;20033;-53
2022/02/12 02:19:03;;;;;;;9.00;3.33;;;8.80;93.50;;;;;;5056346;28;20029;-53
2022/02/12 02:21:30;;;;;;;5.82;2.67;;;8.80;93.50;;;;;;5055368;28;20021;-53
2022/02/12 02:23:56;;;;;;;6.20;3.13;;;8.70;93.40;;;;;;5063177;28;20503;-53
2022/02/12 02:26:21;;;;;;;8.07;3.88;;;8.70;93.40;;;;;;5055970;28;20037;-53
2022/02/12 02:28:48;;;;;;;6.88;3.15;;;8.70;93.40;;;;;;5059359;28;20027;-53
2022/02/12 02:31:14;;;;;;;6.35;3.05;;;8.80;93.40;;;;;;5057972;28;20084;-53
2022/02/12 02:33:39;;;;;;;6.05;2.90;;;8.70;93.40;;;;;;5060268;28;20052;-53
2022/02/12 02:36:05;;;;;;;9.68;3.22;;;8.70;93.40;;;;;;5059051;28;20025;-53
2022/02/12 02:38:31;;;;;;;5.47;3.42;;;8.70;93.40;;;;;;5059047;28;20240;-53
2022/02/12 02:40:57;;;;;;;5.18;2.67;;;8.70;93.40;;;;;;5059558;28;20397;-53
2022/02/12 02:43:24;;;;;;;12.23;3.70;;;8.70;93.50;;;;;;5057321;28;20032;-53
2022/02/12 02:45:50;;;;;;;17.25;4.30;;;8.70;93.40;;;;;;5059931;28;20078;-53
2022/02/12 02:48:16;;;;;;;5.57;2.72;;;8.70;93.30;;;;;;5060934;28;20028;-53
2022/02/12 02:56:12;;;;;;;12.30;4.07;;;8.70;93.30;;;;;;5054197;28;20028;-53
2022/02/12 02:58:53;;;;;;;9.00;3.33;;;8.70;93.40;;;;;;5057224;28;20429;-53
2022/02/12 03:01:24;;;;;;;7.07;3.95;;;8.70;93.40;;;;;;5057642;28;20090;-53
2022/02/12 03:03:51;;;;;;;9.40;3.40;;;8.70;93.40;;;;;;5058894;28;20055;-53
2022/02/12 03:06:19;;;;;;;14.63;3.80;;;8.70;93.30;;;;;;5051236;28;20040;-52
2022/02/12 03:08:45;;;;;;;5.05;2.97;;;8.70;93.30;;;;;;5055873;28;20514;-53
2022/02/12 03:11:13;;;;;;;7.55;3.22;;;8.70;93.30;;;;;;5053976;28;20071;-53
2022/02/12 03:13:40;;;;;;;6.15;3.75;;;8.70;93.30;;;;;;5057688;28;20450;-53
2022/02/12 03:16:08;;;;;;;7.38;3.58;;;8.70;93.30;;;;;;5055977;28;20033;-53
2022/02/12 03:18:34;;;;;;;6.55;3.95;;;8.70;93.20;;;;;;5058476;28;20025;-53
2022/02/12 03:21:00;;;;;;;5.05;2.95;;;8.70;93.20;;;;;;5058124;28;20025;-53
2022/02/12 03:23:25;;;;;;;11.70;3.53;;;8.60;93.20;;;;;;5055070;28;20028;-53
2022/02/12 03:25:51;;;;;;;6.20;3.08;;;8.70;93.30;;;;;;5048754;28;20362;-53
2022/02/12 03:28:17;;;;;;;10.88;4.22;;;8.70;93.20;;;;;;5062247;28;20025;-53
2022/02/12 03:30:48;;;;;;;9.88;3.58;;;8.70;93.30;;;;;;5058221;28;20033;-53
2022/02/12 03:33:15;;;;;;;6.10;3.40;;;8.70;93.30;;;;;;5059744;28;20440;-53
2022/02/12 03:35:42;;;;;;;13.20;3.67;;;8.60;93.10;;;;;;5056048;28;20029;-53
2022/02/12 03:38:09;;;;;;;12.07;4.10;;;8.60;93.20;;;;;;5056803;28;20025;-53
2022/02/12 03:40:37;;;;;;;7.25;3.60;;;8.60;93.20;;;;;;5054888;28;20056;-53
2022/02/12 03:43:03;;;;;;;7.38;4.00;;;8.60;93.20;;;;;;5055334;28;20453;-53
2022/02/12 03:45:28;;;;;;;6.97;3.38;;;8.60;93.10;;;;;;5055601;28;20108;-53
2022/02/12 03:47:54;;;;;;;11.43;4.53;;;8.70;93.10;;;;;;5057590;28;20036;-53
2022/02/12 03:50:20;;;;;;;7.35;3.80;;;8.60;93.10;;;;;;5057538;28;20049;-53
2022/02/12 03:52:45;;;;;;;10.90;3.28;;;8.60;93.20;;;;;;5056119;28;20021;-53
2022/02/12 03:55:11;;;;;;;9.15;3.42;;;8.70;93.20;;;;;;5054509;28;20425;-53
2022/02/12 03:57:37;;;;;;;9.25;3.70;;;8.60;93.10;;;;;;5057331;28;20079;-53
2022/02/12 04:00:05;;;;;;;7.75;3.83;;;8.60;93.20;;;;;;5059273;28;20036;-53
2022/02/12 04:02:31;;;;;;;9.93;3.78;;;8.60;93.20;;;;;;5058316;28;20026;-53
2022/02/12 04:04:56;;;;;;;9.00;3.42;;;8.60;93.20;;;;;;5056447;28;20116;-53
2022/02/12 04:07:22;;;;;;;7.47;3.97;;;8.60;93.10;;;;;;5056981;28;20484;-53
2022/02/12 04:09:47;;;;;;;15.02;4.05;;;8.60;93.20;;;;;;5058206;28;20119;-53
2022/02/12 04:12:13;;;;;;;13.07;4.35;;;8.60;93.20;;;;;;5053004;28;20036;-53
2022/02/12 04:14:39;;;;;;;12.73;4.72;;;8.60;93.20;;;;;;5057324;28;20438;-53
2022/02/12 04:17:04;;;;;;;6.82;3.60;;;8.60;93.20;;;;;;5055155;28;20036;-53
2022/02/12 04:19:30;;;;;;;12.48;3.88;;;8.60;93.20;;;;;;5061454;28;20024;-53
2022/02/12 04:21:56;;;;;;;8.95;4.22;;;8.60;93.20;;;;;;5057315;28;20065;-53
2022/02/12 04:24:21;;;;;;;10.00;4.65;;;8.60;93.10;;;;;;5055191;28;20450;-53
2022/02/12 04:26:47;;;;;;;11.50;4.18;;;8.60;93.20;;;;;;5058400;28;20382;-53
2022/02/12 04:29:13;;;;;;;10.88;4.55;;;8.60;93.20;;;;;;5057421;28;20107;-52
2022/02/12 04:31:38;;;;;;;8.50;3.95;;;8.60;93.20;;;;;;5052978;28;20084;-53
2022/02/12 04:34:04;;;;;;;4.88;3.30;;;8.60;93.20;;;;;;5061338;28;20060;-53
2022/02/12 04:36:30;;;;;;;7.18;3.42;;;8.60;93.30;;;;;;5054199;28;20037;-53
2022/02/12 04:38:55;;;;;;;7.53;3.38;;;8.60;93.30;;;;;;5051536;28;20021;-53
2022/02/12 04:41:21;;;;;;;8.93;3.90;;;8.60;93.20;;;;;;5055227;28;20431;-53
2022/02/12 04:43:48;;;;;;;5.70;3.63;;;8.60;93.20;;;;;;5056536;28;20043;-53
2022/02/12 04:46:14;;;;;;;10.30;4.80;;;8.60;93.20;;;;;;5054720;28;20048;-53
2022/02/12 04:48:39;;;;;;;8.23;3.90;;;8.50;93.20;;;;;;5052988;28;20029;-53
2022/02/12 04:51:05;;;;;;;9.82;4.32;;;8.60;93.20;;;;;;5053776;28;20057;-53
2022/02/12 04:53:30;;;;;;;10.02;3.92;;;8.60;93.30;;;;;;5056117;28;20370;-53
2022/02/12 04:55:56;;;;;;;7.90;4.22;;;8.50;93.20;;;;;;5055054;28;20091;-53
2022/02/12 04:58:22;;;;;;;12.40;4.65;;;8.60;93.20;;;;;;5060988;28;20020;-53
2022/02/12 05:00:47;;;;;;;8.57;3.88;;;8.50;93.10;;;;;;5060545;28;20029;-53
2022/02/12 05:03:13;;;;;;;10.40;4.25;;;8.50;93.60;;;;;;5057554;28;20037;-53
2022/02/12 05:05:38;;;;;;;9.73;4.32;;;8.60;93.20;;;;;;5056163;28;20124;-53
2022/02/12 05:08:04;;;;;;;8.45;4.18;;;8.50;93.20;;;;;;5062696;28;20017;-53
2022/02/12 05:10:31;;;;;;;11.10;4.47;;;8.50;93.20;;;;;;5059827;28;20045;-53
2022/02/12 05:12:58;;;;;;;11.43;4.28;;;8.50;93.20;;;;;;5056628;28;20033;-53
2022/02/12 05:15:23;;;;;;;7.30;4.28;;;8.50;93.20;;;;;;5060922;28;20033;-53
2022/02/12 05:17:50;;;;;;;12.07;4.88;;;8.50;93.20;;;;;;5060573;28;20029;-53
2022/02/12 05:20:15;;;;;;;9.60;5.00;;;8.50;93.20;;;;;;5061885;28;20491;-53
2022/02/12 05:22:41;;;;;;;9.93;3.78;;;8.50;93.10;;;;;;5060644;28;20033;-53
2022/02/12 05:25:07;;;;;;;7.97;4.55;;;8.50;93.20;;;;;;5058311;28;20646;-53
2022/02/12 05:27:33;;;;;;;7.25;3.80;;;8.50;93.20;;;;;;5053775;28;20025;-53
2022/02/12 05:29:59;;;;;;;6.80;4.15;;;8.50;93.20;;;;;;5060547;28;20349;-52
2022/02/12 05:32:25;;;;;;;11.55;4.28;;;8.50;93.20;;;;;;5060633;28;20383;-53
2022/02/12 05:34:50;;;;;;;11.55;3.65;;;8.50;93.10;;;;;;5058129;28;20021;-52
2022/02/12 05:37:16;;;;;;;13.00;4.82;;;8.50;93.10;;;;;;5062898;28;20063;-53
2022/02/12 05:39:41;;;;;;;7.95;4.28;;;8.50;93.10;;;;;;5061562;28;20025;-53
2022/02/12 05:42:07;;;;;;;9.90;4.68;;;8.50;93.20;;;;;;5053811;28;20484;-53
2022/02/12 05:44:33;;;;;;;8.15;4.50;;;8.50;93.20;;;;;;5060162;28;20040;-54
2022/02/12 05:46:58;;;;;;;12.85;4.60;;;8.50;93.20;;;;;;5062913;28;20450;-53
2022/02/12 05:49:24;;;;;;;11.50;4.32;;;8.50;93.20;;;;;;5059969;28;20032;-53
2022/02/12 05:51:50;;;;;;;9.05;4.47;;;8.50;93.10;;;;;;5057874;28;20478;-53
2022/02/12 05:54:16;;;;;;;15.05;5.00;;;8.50;93.10;;;;;;5059518;28;20033;-53
2022/02/12 05:56:41;;;;;;;6.95;4.30;;;8.50;93.10;;;;;;5056418;28;20496;-53
2022/02/12 05:59:12;;;;;;;9.95;4.13;;;8.50;93.10;;;;;;5061209;28;20110;-53
2022/02/12 06:01:38;;;;;;;;;;;8.50;93.10;;;;;;5062859;28;20123;-53
2022/02/12 06:04:04;;;;;;;8.65;3.95;;;8.50;93.10;;;;;;5063091;28;20398;-53
2022/02/12 06:06:29;;;;;;;7.90;4.00;;;8.40;93.00;;;;;;5059667;28;20033;-54
2022/02/12 06:08:55;;;;;;;6.45;3.72;;;8.40;93.00;;;;;;5060080;28;20028;-53
2022/02/12 06:11:21;;;;;;;8.65;4.20;;;8.40;93.00;;;;;;5058841;28;20040;-53
2022/02/12 06:13:51;;;;;;;12.88;4.00;;;8.50;93.00;;;;;;5055077;28;20451;-53
2022/02/12 06:16:18;;;;;;;8.93;4.60;;;8.40;93.00;;;;;;5059698;28;20097;-53
2022/02/12 06:18:44;;;;;;;8.38;3.90;;;8.50;93.00;;;;;;5058816;28;20028;-53
2022/02/12 06:21:10;;;;;;;7.80;4.53;;;8.50;93.00;;;;;;5057912;28;20043;-53
2022/02/12 06:23:36;;;;;;;11.88;4.50;;;8.40;92.90;;;;;;5057393;28;20048;-53
2022/02/12 06:26:02;;;;;;;8.18;3.97;;;8.40;92.90;;;;;;5059453;28;20032;-53
2022/02/12 06:28:28;;;;;;;8.40;3.95;;;8.40;92.90;;;;;;5052841;28;20033;-53
2022/02/12 06:30:53;;;;;;;10.85;4.00;;;8.40;92.90;;;;;;5058136;28;20045;-53
2022/02/12 06:33:19;;;;;;;9.82;3.75;;;8.40;92.90;;;;;;5060266;28;20029;-53
2022/02/12 06:35:44;;;;;;;18.10;4.47;;;8.40;92.90;;;;;;5060043;28;20707;-53
2022/02/12 06:38:10;;;;;;;9.43;4.03;;;8.40;92.90;;;;;;5057599;28;20021;-53
2022/02/12 06:40:36;;;;;;;6.72;3.70;;;8.40;92.80;;;;;;5057632;28;20434;-54
2022/02/12 06:43:03;;;;;;;8.35;3.53;;;8.40;92.80;;;;;;5052605;28;20036;-53
2022/02/12 06:45:30;;;;;;;9.40;4.03;;;8.40;92.90;;;;;;5056965;28;20033;-53
2022/02/12 06:47:55;;;;;;;6.68;4.10;;;8.40;92.80;;;;;;5059446;28;20100;-53
2022/02/12 06:50:21;;;;;;;11.73;4.32;;;8.40;92.90;;;;;;5056669;28;20076;-53
2022/02/12 06:52:47;;;;;;;9.23;4.72;;;8.40;92.80;;;;;;5055020;28;20013;-53
2022/02/12 06:55:12;;;;;;;10.85;5.22;;;8.40;92.90;;;;;;5055167;28;20025;-53
2022/02/12 06:57:38;;;;;;;10.68;5.03;;;8.40;92.80;;;;;;5055544;28;20025;-53
2022/02/12 07:00:06;;;;;;;16.27;4.70;;;8.40;92.80;;;;;;5058224;28;20370;-53
2022/02/12 07:02:32;;;;;;;11.90;5.25;;;8.40;92.70;;;;;;5056388;28;20078;-53
2022/02/12 07:04:59;;;;;;;13.10;4.72;;;8.40;92.70;;;;;;5056234;28;20041;-53
2022/02/12 07:07:25;;;;;;;11.52;5.35;;;8.40;92.70;;;;;;5058859;28;20028;-53
2022/02/12 07:09:51;;;;;;;9.20;4.47;;;8.40;92.70;;;;;;5058079;28;20353;-53
2022/02/12 07:12:17;;;;;;;13.40;5.13;;;8.40;92.70;;;;;;5053211;28;20051;-53
2022/02/12 07:14:42;;;;;;;11.15;4.70;;;8.40;92.70;;;;;;5058664;28;20359;-53
2022/02/12 07:17:08;;;;;;;12.05;4.60;;;8.40;92.80;;;;;;5058764;28;20028;-54
2022/02/12 07:19:36;;;;;;;9.35;3.95;;;8.40;92.80;;;;;;5055728;28;20112;-53
2022/02/12 07:22:02;;;;;;;9.88;4.75;;;8.40;92.80;;;;;;5056003;28;20033;-53
2022/02/12 07:24:28;;;;;;;15.10;4.72;;;8.40;92.90;;;;;;5054576;28;20021;-53
2022/02/12 07:26:53;;;;;;;9.48;4.45;;;8.50;92.90;;;;;;5057578;28;20355;-54
2022/02/12 07:29:19;;;;;;;8.45;4.32;;;8.50;92.80;;;;;;5055981;28;20416;-53
2022/02/12 07:31:44;;;;;;;13.02;4.60;;;8.40;92.80;;;;;;5054818;28;20048;-53
2022/02/12 07:34:15;;;;;;;9.57;4.03;;;8.40;92.70;;;;;;5060561;28;20028;-53
2022/02/12 07:36:41;;;;;;;10.82;4.53;;;8.40;92.70;;;;;;5059342;28;20024;-53
2022/02/12 07:39:06;;;;;;;13.10;5.05;;;8.30;92.80;;;;;;5060494;28;20033;-53
2022/02/12 07:41:34;;;;;;;8.98;4.00;;;8.40;92.90;;;;;;5058288;28;20024;-53
2022/02/12 07:44:00;;;;;;;7.78;4.70;;;8.40;92.80;;;;;;5054116;28;20036;-53
2022/02/12 07:46:26;;;;;;;9.07;4.47;;;8.40;92.90;;;;;;5055423;28;20027;-53
2022/02/12 07:48:52;;;;;;;10.48;4.13;;;8.40;92.80;;;;;;5058706;28;20054;-54
2022/02/12 07:51:17;;;;;;;12.43;4.95;;;8.40;92.90;;;;;;5056533;28;20044;-53
2022/02/12 07:53:43;;;;;;;12.63;4.60;;;8.40;92.90;;;;;;5057400;28;20040;-54
2022/02/12 07:56:09;;;;;;;11.00;4.53;;;8.40;92.90;;;;;;5056027;28;20028;-54
2022/02/12 07:58:34;;;;;;;16.42;4.93;;;8.40;92.80;;;;;;5053445;28;20036;-54
2022/02/12 08:01:00;;;;;;;8.13;4.30;;;8.40;92.70;;;;;;5058813;28;20028;-53
2022/02/12 08:03:25;;;;;;;11.10;3.33;;;8.40;92.70;;;;;;5052102;28;20059;-54
2022/02/12 08:05:51;;;;;;;13.60;5.75;;;8.40;92.70;;;;;;5055922;28;20450;-53
2022/02/12 08:08:16;;;;;;;17.52;5.38;;;8.40;92.60;;;;;;5056875;28;20025;-53
2022/02/12 08:13:27;;;;;;;9.15;4.65;;;8.50;92.70;;;;;;5049121;28;20441;-53
2022/02/12 08:15:52;;;;;;;6.95;4.25;;;8.50;92.40;;;;;;5058887;28;20029;-53
2022/02/12 08:18:18;;;;;;;8.27;4.85;;;8.60;92.40;;;;;;5062135;28;20067;-53
2022/02/12 08:20:44;;;;;;;12.95;5.10;;;8.60;92.30;;;;;;5062356;28;20116;-53
2022/02/12 08:23:09;;;;;;;16.50;5.28;;;8.70;92.70;;;;;;5068374;28;20055;-53
2022/02/12 08:25:35;;;;;;;11.88;4.82;;;8.70;92.30;;;;;;5067252;28;20025;-53
2022/02/12 08:28:01;;;;;;;8.38;4.78;;;8.70;92.10;;;;;;5055891;28;20033;-53
2022/02/12 08:30:26;;;;;;;14.00;5.10;;;8.80;92.20;;;;;;5065338;28;20025;-53
2022/02/12 08:32:52;;;;;;;9.52;4.43;;;8.80;92.10;;;;;;5067175;28;20652;-53
2022/02/12 08:35:18;;;;;;;14.10;4.85;;;8.90;92.10;;;;;;5067486;28;20021;-53
2022/02/12 08:37:45;;;;;;;17.70;4.43;;;8.90;92.10;;;;;;5070056;28;20032;-53
2022/02/12 08:40:14;;;;;;;13.32;5.70;;;8.90;92.00;;;;;;5067993;28;20017;-53
2022/02/12 08:42:41;;;;;;;13.05;5.32;;;8.90;92.00;;;;;;5065023;28;20024;-53
2022/02/12 08:45:08;;;;;;;18.48;5.68;;;9.00;92.20;;;;;;5059144;28;20325;-54
2022/02/12 08:47:34;;;;;;;15.05;6.20;;;9.00;92.20;;;;;;5073121;28;20529;-53
2022/02/12 08:50:00;;;;;;;17.35;4.80;;;9.00;92.20;;;;;;5073985;28;20066;-53
2022/02/12 08:52:26;;;;;;;9.05;4.20;;;9.00;92.20;;;;;;5069149;28;20028;-54
2022/02/12 08:54:52;;;;;;;13.38;5.40;;;9.00;92.20;;;;;;5073241;28;20028;-53
2022/02/12 08:57:17;;;;;;;19.90;5.43;;;9.00;92.30;;;;;;5067864;28;20050;-53
2022/02/12 08:59:43;;;;;;;11.13;6.00;;;9.10;92.80;;;;;;5067055;28;20391;-54
2022/02/12 09:02:12;;;;;;;12.00;5.25;;;9.10;92.50;;;;;;5067243;28;20030;-54
2022/02/12 09:04:39;;;;;;;13.52;5.38;;;9.10;92.70;;;;;;5068264;28;20051;-54
2022/02/12 09:07:05;;;;;;;14.30;5.03;;;9.20;93.00;;;;;;5082237;28;20012;-54
2022/02/12 09:09:31;;;;;;;12.52;5.57;;;9.10;92.80;;;;;;5073758;28;20063;-54
2022/02/12 09:11:57;;;;;;;11.98;5.38;;;9.20;92.80;;;;;;5077903;28;20064;-54
2022/02/12 09:14:24;;;;;;;8.50;4.75;;;9.20;92.90;;;;;;5067350;28;20035;-54
2022/02/12 09:16:50;;;;;;;19.23;5.45;;;9.20;93.20;;;;;;5071818;28;20106;-54
2022/02/12 09:19:15;;;;;;;14.05;5.03;;;9.20;93.00;;;;;;5068717;28;20449;-54
2022/02/12 09:21:41;;;;;;;14.52;5.10;;;9.30;93.90;;;;;;5072986;28;20046;-54
2022/02/12 09:24:07;;;;;;;15.75;5.75;;;9.30;93.30;;;;;;5068973;28;20035;-54
2022/02/12 09:26:33;;;;;;;16.25;4.32;;;9.30;93.40;;;;;;5071653;28;20362;-54
2022/02/12 09:29:04;;;;;;;11.32;4.75;;;9.30;93.10;;;;;;5071440;28;20466;-54
2022/02/12 09:31:30;;;;;;;7.95;4.38;;;9.40;93.40;;;;;;5073002;28;20036;-53
2022/02/12 09:33:57;;;;;;;8.10;4.50;;;9.40;93.50;;;;;;5077484;28;20028;-54
2022/02/12 09:36:22;;;;;;;17.92;4.50;;;9.40;93.40;;;;;;5074922;28;20024;-54
2022/02/12 09:38:48;;;;;;;11.45;4.50;;;9.40;93.40;;;;;;5072183;28;20032;-54
2022/02/12 09:41:15;;;;;;;8.77;4.22;;;9.40;94.40;;;;;;5067616;28;20032;-54
2022/02/12 09:43:43;;;;;;;20.92;4.85;;;9.40;94.30;;;;;;5066676;28;20033;-54
2022/02/12 09:46:17;;;;;;;8.63;3.83;;;9.40;94.40;;;;;;5070975;28;20028;-54
2022/02/12 09:48:45;;;;;;;8.90;4.10;;;9.40;94.70;;;;;;5074578;28;20393;-54
2022/02/12 09:51:12;;;;;;;14.13;4.53;;;9.40;94.70;;;;;;5072950;28;20079;-54
2022/02/12 09:53:38;;;;;;;12.38;4.65;;;9.40;94.50;;;;;;5071760;28;20386;-54
2022/02/12 09:56:04;;;;;;;7.25;4.10;;;9.40;94.60;;;;;;5074433;28;20081;-54
2022/02/12 09:58:29;;;;;;;14.15;3.75;;;9.40;94.40;;;;;;5072510;28;20040;-54
2022/02/12 10:00:55;;;;;;;6.43;3.45;;;9.50;94.70;;;;;;5067244;28;20051;-54
2022/02/12 10:03:21;;;;;;;9.70;3.60;;;9.50;94.30;;;;;;5068864;28;20029;-54
2022/02/12 10:05:51;;;;;;;10.18;4.40;;;9.50;94.40;;;;;;5073216;28;20062;-54
2022/02/12 10:08:17;;;;;;;;;;;9.50;94.30;;;;;;5068709;28;20029;-54
2022/02/12 10:10:45;;;;;;;9.70;3.40;;;9.70;94.50;;;;;;5066765;28;20316;-54
2022/02/12 10:13:26;;;;;;;8.93;3.58;;;9.70;94.20;;;;;;5073112;28;20024;-54
2022/02/12 10:15:57;;;;;;;10.50;4.45;;;9.60;94.10;;;;;;5069763;28;20020;-51
2022/02/12 10:18:24;;;;;;;8.05;5.00;;;9.70;92.70;;;;;;5066063;28;20024;-57
2022/02/12 10:20:51;;;;;;;8.63;3.95;;;9.40;90.10;;;;;;5067630;28;20052;-57
2022/02/12 10:23:20;;;;;;;8.63;4.22;;;8.80;83.50;;;;;;5066237;28;20029;-57
2022/02/12 10:25:51;;;;;;;8.88;5.22;;;8.50;83.90;;;;;;5067451;28;20020;-57
2022/02/12 10:28:18;;;;;;;13.07;4.82;;;8.50;83.40;;;;;;5067562;28;20081;-57
2022/02/12 10:30:46;;;;;;;16.40;6.90;;;8.40;83.20;;;;;;5082506;28;20060;-57
2022/02/12 10:33:12;;;;;;;14.10;6.22;;;8.30;84.30;;;;;;5066641;28;20025;-57
2022/02/12 10:35:40;;;;;;;8.27;4.85;;;8.30;84.70;;;;;;5070876;28;20468;-57
2022/02/12 10:38:10;;;;;;;13.88;5.07;;;8.30;83.30;;;;;;5068640;28;20032;-57
2022/02/12 10:40:37;;;;;;;12.60;5.43;;;8.30;83.30;;;;;;5066194;28;20059;-57
2022/02/12 10:43:03;;;;;;;12.32;6.47;;;8.40;83.80;;;;;;5068685;28;20450;-57
2022/02/12 10:45:30;;;;;;;14.82;5.57;;;8.40;82.70;;;;;;5064521;28;20441;-57
2022/02/12 10:47:57;;;;;;;13.27;4.85;;;8.40;83.20;;;;;;5066428;28;20036;-56
2022/02/12 10:50:26;;;;;;;16.40;5.95;;;8.50;82.70;;;;;;5070058;28;20455;-56
2022/02/12 10:52:58;;;;;;;14.57;4.43;;;8.40;81.70;;;;;;5067928;28;20073;-56
2022/02/12 10:55:41;;;;;;;11.13;5.13;;;8.50;80.90;;;;;;5070623;28;20024;-56
2022/02/12 10:58:09;;;;;;;6.22;3.85;;;8.50;81.70;;;;;;5065319;28;20115;-56
2022/02/12 11:00:37;;;;;;;10.50;4.80;;;8.50;82.80;;;;;;5060446;28;20029;-57
2022/02/12 11:03:12;;;;;;;11.05;4.85;;;8.50;81.20;;;;;;5065181;28;20055;-57
2022/02/12 11:05:43;;;;;;;12.98;4.78;;;8.30;80.50;;;;;;5071168;28;20037;-57
2022/02/12 11:08:09;;;;;;;9.43;4.40;;;8.40;81.20;;;;;;5072499;28;20031;-56
2022/02/12 11:10:36;;;;;;;14.18;4.95;;;8.20;81.60;;;;;;5072081;28;20033;-56
2022/02/12 11:13:04;;;;;;;7.97;4.25;;;8.30;81.00;;;;;;5061129;28;20512;-56
2022/02/12 11:15:31;;;;;;;8.57;3.90;;;8.30;81.40;;;;;;5067072;28;20040;-56
2022/02/12 11:17:59;;;;;;;17.83;4.18;;;8.30;81.20;;;;;;5070801;28;20108;-56
2022/02/12 11:20:27;;;;;;;9.88;4.00;;;8.30;80.00;;;;;;5068226;28;20028;-56
2022/02/12 11:23:28;;;;;;;15.40;5.10;;;8.40;80.10;;;;;;5069733;28;20036;-56
2022/02/12 11:26:04;;;;;;;6.00;3.20;;;8.50;80.50;;;;;;5070573;28;20081;-56
2022/02/12 11:28:31;;;;;;;10.68;4.63;;;8.70;79.90;;;;;;5071740;28;20086;-57
2022/02/12 11:31:34;;;;;;;15.85;4.82;;;8.80;79.20;;;;;;5066753;28;20131;-56
2022/02/12 11:34:17;;;;;;;6.32;3.70;;;8.70;81.50;;;;;;5074822;28;20021;-56
2022/02/12 11:36:46;;;;;;;12.05;4.05;;;8.40;78.10;;;;;;5071247;28;20028;-56
2022/02/12 11:39:20;;;;;;;17.92;4.60;;;8.40;80.50;;;;;;5072580;28;20024;-56
2022/02/12 11:41:49;;;;;;;9.20;3.65;;;8.50;80.20;;;;;;5065006;28;20091;-56
2022/02/12 11:44:41;;;;;;;15.35;4.40;;;8.50;79.70;;;;;;5067235;28;20023;-57
2022/02/12 11:47:08;;;;;;;11.18;4.57;;;8.60;78.90;;;;;;5069104;28;20025;-57
2022/02/12 11:49:36;;;;;;;10.70;5.10;;;8.50;78.80;;;;;;5069357;28;20461;-56
2022/02/12 11:52:15;;;;;;;1.80;1.13;;;8.50;82.00;;;;;;5070652;28;20036;-57
2022/02/12 11:54:46;;;;;;;10.48;4.65;;;8.70;79.60;;;;;;5069493;28;20024;-57
2022/02/12 11:57:25;;;;;;;14.65;4.43;;;8.60;78.10;;;;;;5074321;28;20032;-57
2022/02/12 11:59:51;;;;;;;9.88;5.43;;;8.50;81.00;;;;;;5068015;28;20029;-56
2022/02/12 12:02:38;;;;;;;13.35;5.55;;;8.60;80.10;;;;;;5072808;28;20035;-57
2022/02/12 12:05:26;;;;;;;9.90;4.68;;;8.60;81.40;;;;;;5070258;28;20039;-57
2022/02/12 12:08:12;;;;;;;18.27;6.75;;;8.60;81.20;;;;;;5075449;28;20059;-56
2022/02/12 12:10:51;;;;;;;15.48;5.50;;;8.70;80.00;;;;;;5076008;28;20045;-56
2022/02/12 12:13:17;;;;;;;19.83;6.18;;;8.60;81.00;;;;;;5072307;28;20031;-56
2022/02/12 12:15:56;;;;;;;15.65;6.88;;;8.60;80.00;;;;;;5072796;28;20606;-57
2022/02/12 12:18:25;;;;;;;12.77;5.93;;;8.60;80.70;;;;;;5069413;28;20029;-57
2022/02/12 12:20:51;;;;;;;14.15;5.32;;;8.70;80.80;;;;;;5068224;28;20025;-57
2022/02/12 12:23:17;;;;;;;12.00;6.47;;;8.70;80.60;;;;;;5068698;28;20025;-57
2022/02/12 12:25:58;;;;;;;15.05;6.38;;;8.70;79.40;;;;;;5049333;28;20071;-56
2022/02/12 12:30:44;;;;;;;;;;;8.70;80.80;;;;;;5070363;28;20028;-57
2022/02/12 12:31:32;;;;;;;11.60;6.20;;;8.80;80.80;;;;;;5059469;28;20361;-56
2022/02/12 12:34:07;;;;;;;15.88;5.82;;;8.80;79.90;;;;;;5069035;28;20021;-56
2022/02/12 12:36:38;;;;;;;11.60;6.15;;;8.70;79.60;;;;;;5065977;28;20055;-56
2022/02/12 12:39:11;;;;;;;11.95;5.15;;;8.60;78.70;;;;;;5050262;28;20024;-56
2022/02/12 12:41:39;;;;;;;9.88;5.28;;;8.70;79.40;;;;;;5062343;28;20104;-56
2022/02/12 12:44:13;;;;;;;14.73;5.55;;;8.70;78.30;;;;;;5073628;28;20032;-57
2022/02/12 12:46:41;;;;;;;18.77;6.55;;;8.80;80.60;;;;;;5059227;28;20017;-57
2022/02/12 12:49:09;;;;;;;13.07;4.15;;;8.70;77.60;;;;;;5067621;28;20470;-57
2022/02/12 12:51:49;;;;;;;8.43;4.68;;;8.70;77.90;;;;;;5063851;28;20036;-57
2022/02/12 12:54:15;;;;;;;13.90;4.82;;;8.80;77.40;;;;;;5065620;28;20131;-57
2022/02/12 12:56:40;;;;;;;12.70;3.60;;;8.90;79.20;;;;;;5068865;28;20100;-56
2022/02/12 12:59:08;;;;;;;5.22;2.63;;;9.00;79.00;;;;;;5067225;28;20024;-56
2022/02/12 13:01:34;;;;;;;4.47;2.40;;;9.00;78.60;;;;;;5057492;28;20028;-56